Eko 4 — SVAR8 — position and weather

sailwx.info

Track history (hours):
 
Tides and Currents Weather Stations Pressure Air Temp Water Temp Dewpoint Dewpoint Depression Visibility Wind Speed Wind Dir Waves Ship Positions

Eko 4

Last reported at 2017-Aug-13 19:43 UTC. Time now 2017-Aug-16 21:48 UTC.
Position N 37°35' E 023°51'.

Length 88 m; draft 5.5 m.

Type: Ship (hazmat cat A). MMSI: 240912000.

Date/timePositionNaut miles runAvg speedWind from/ knotsBaromVisibWave heightAir tempDewpointWater temp
2017-Aug-13 19:43N 37°35' E 023°51'2 9.8
2017-Aug-13 19:30N 37°36' E 023°49'5 9.5
2017-Aug-13 19:01N 37°39' E 023°44'5 9.1
2017-Aug-13 18:31N 37°43' E 023°41'5 9.5
2017-Aug-13 18:01N 37°47' E 023°38'5 9.3
2017-Aug-13 17:31N 37°50' E 023°33'5 9.8
2017-Aug-13 17:01N 37°51' E 023°27'5 9.9
2017-Aug-13 16:30N 37°52' E 023°21'10 9.7
2017-Aug-13 15:28N 37°54' E 023°09'3 0.1
2017-Aug-12 18:25N 37°55' E 023°05'1 2.1
2017-Aug-12 17:59N 37°54' E 023°06'0 0.1
2017-Aug-12 16:07N 37°55' E 023°06'1 4.2
2017-Aug-12 15:59N 37°54' E 023°07'4 8.0
2017-Aug-12 15:30N 37°53' E 023°11'5 9.9
2017-Aug-12 15:01N 37°53' E 023°18'5 9.9
2017-Aug-12 14:31N 37°52' E 023°24'510.0
2017-Aug-12 14:01N 37°50' E 023°30'5 9.3
2017-Aug-12 13:30N 37°54' E 023°34'2 3.3
2017-Aug-12 13:01N 37°55' E 023°34'0 0.0
2017-Aug-12 12:31N 37°55' E 023°34'0 0.0
2017-Aug-12 12:01N 37°55' E 023°34'0 0.0
2017-Aug-12 11:31N 37°55' E 023°34'0 0.1
2017-Aug-12 11:01N 37°55' E 023°34'1 1.6
2017-Aug-12 10:31N 37°55' E 023°34'5 9.2
2017-Aug-12 10:00N 37°51' E 023°38'510.0
2017-Aug-12 09:31N 37°47' E 023°41'5 9.9
2017-Aug-12 09:01N 37°42' E 023°44'6 9.9
2017-Aug-12 08:27N 37°38' E 023°49'  
2017-Aug-08 08:45N 37°35' E 023°50'3 9.8
2017-Aug-08 08:24N 37°37' E 023°47'4 9.8
2017-Aug-08 08:01N 37°39' E 023°43'510.4
2017-Aug-08 07:31N 37°44' E 023°40'510.4
2017-Aug-08 07:01N 37°49' E 023°37'510.1
2017-Aug-08 06:30N 37°54' E 023°36'4 7.8
2017-Aug-08 06:00N 37°57' E 023°34'4 7.2
2017-Aug-08 05:30N 38°01' E 023°33'1 2.3
2017-Aug-08 04:57N 38°02' E 023°32'0 0.0
2017-Aug-08 04:30N 38°02' E 023°32'0 0.0
2017-Aug-08 04:00N 38°02' E 023°32'0 0.0
2017-Aug-08 03:30N 38°02' E 023°32'0 0.0
2017-Aug-08 03:00N 38°02' E 023°32'0 0.1
2017-Aug-08 02:30N 38°02' E 023°32'1 2.3
2017-Aug-08 01:58N 38°02' E 023°31'0 0.0
2017-Aug-08 01:28N 38°02' E 023°31'0 0.0
2017-Aug-08 00:58N 38°02' E 023°31'0 0.0
2017-Aug-08 00:28N 38°02' E 023°31'0 0.0
2017-Aug-07 23:58N 38°02' E 023°31'0 0.0
2017-Aug-07 23:25N 38°02' E 023°31'0 0.0
2017-Aug-07 22:58N 38°02' E 023°31'0 0.0
2017-Aug-07 22:28N 38°02' E 023°31'0 0.0
2017-Aug-07 21:55N 38°02' E 023°31'0 0.0
2017-Aug-07 21:28N 38°02' E 023°31'0 0.0
2017-Aug-07 20:58N 38°02' E 023°31'0 0.0
2017-Aug-07 20:28N 38°02' E 023°31'0 0.0
2017-Aug-07 19:58N 38°02' E 023°31'0 0.0
2017-Aug-07 19:28N 38°02' E 023°31'0 0.0
2017-Aug-07 18:58N 38°02' E 023°31'0 0.0
2017-Aug-07 18:28N 38°02' E 023°31'0 0.0
2017-Aug-07 17:58N 38°02' E 023°31'0 0.0
2017-Aug-07 17:25N 38°02' E 023°31'0 0.0
2017-Aug-07 16:58N 38°02' E 023°31'0 0.0
2017-Aug-07 16:28N 38°02' E 023°31'0 0.0
2017-Aug-07 15:58N 38°02' E 023°31'0 0.0
2017-Aug-07 15:28N 38°02' E 023°31'0 0.0
2017-Aug-07 14:58N 38°02' E 023°31'0 0.0
2017-Aug-07 14:28N 38°02' E 023°31'0 0.0
2017-Aug-07 13:55N 38°02' E 023°31'0 0.0
2017-Aug-07 13:28N 38°02' E 023°31'0 0.0
2017-Aug-07 12:58N 38°02' E 023°31'0 0.0
2017-Aug-07 12:28N 38°02' E 023°31'0 0.0
2017-Aug-07 11:55N 38°02' E 023°31'0 0.0
2017-Aug-07 11:28N 38°02' E 023°31'0 0.0
2017-Aug-07 10:52N 38°02' E 023°31'0 0.0
2017-Aug-07 10:28N 38°02' E 023°31'0 0.0
2017-Aug-07 09:58N 38°02' E 023°31'0 0.0
2017-Aug-07 09:28N 38°02' E 023°31'0 0.0
2017-Aug-07 08:58N 38°02' E 023°31'0 0.9
2017-Aug-07 08:31N 38°02' E 023°31'1 2.0
2017-Aug-07 07:58N 38°02' E 023°32'0 0.0
2017-Aug-07 07:28N 38°02' E 023°32'0 0.1
2017-Aug-07 06:58N 38°02' E 023°32'0 0.0
2017-Aug-07 06:28N 38°02' E 023°32'0 0.0
2017-Aug-07 05:58N 38°02' E 023°32'0 0.0
2017-Aug-07 05:28N 38°02' E 023°32'0 0.0
2017-Aug-07 04:58N 38°02' E 023°32'0 0.1
2017-Aug-07 04:28N 38°02' E 023°32'0 0.0
2017-Aug-07 03:58N 38°02' E 023°32'0 0.0
2017-Aug-07 03:25N 38°02' E 023°32'0 0.1
2017-Aug-07 02:58N 38°02' E 023°32'0 0.0
2017-Aug-07 02:28N 38°02' E 023°32'0 0.0
2017-Aug-07 01:58N 38°02' E 023°32'0 0.1
2017-Aug-07 01:28N 38°02' E 023°32'0 0.0
2017-Aug-07 00:58N 38°02' E 023°32'0 0.1
2017-Aug-07 00:28N 38°02' E 023°32'0 0.0
2017-Aug-06 23:58N 38°02' E 023°32'0 0.1
2017-Aug-06 23:28N 38°02' E 023°32'0 0.0
2017-Aug-06 22:58N 38°02' E 023°32'0 0.0
2017-Aug-06 22:28N 38°02' E 023°32'0 0.0
2017-Aug-06 21:58N 38°02' E 023°32'0 0.0
2017-Aug-06 21:28N 38°02' E 023°32'0 0.0
2017-Aug-06 20:58N 38°02' E 023°32'0 0.0
2017-Aug-06 20:28N 38°02' E 023°32'0 0.0
2017-Aug-06 19:58N 38°02' E 023°32'0 0.0
2017-Aug-06 19:28N 38°02' E 023°32'0 0.0
2017-Aug-06 18:58N 38°02' E 023°32'0 0.1
2017-Aug-06 18:28N 38°02' E 023°32'0 0.0
2017-Aug-06 17:58N 38°02' E 023°32'0 0.0
2017-Aug-06 17:28N 38°02' E 023°32'0 0.0
2017-Aug-06 16:58N 38°02' E 023°32'0 0.1
2017-Aug-06 16:28N 38°02' E 023°32'3 5.7
2017-Aug-06 16:00N 37°59' E 023°33'4 8.3
2017-Aug-06 15:30N 37°56' E 023°36'2 5.0
2017-Aug-06 15:00N 37°54' E 023°38'510.4
2017-Aug-06 14:30N 37°49' E 023°40'510.4
2017-Aug-06 14:00N 37°44' E 023°43'510.2
2017-Aug-06 13:29N 37°40' E 023°46'  
2017-Aug-03 23:16N 37°12' E 025°49'3 9.6
2017-Aug-03 23:00N 37°12' E 025°46'5 9.5
2017-Aug-03 22:30N 37°13' E 025°40'5 9.5
2017-Aug-03 21:59N 37°14' E 025°34'4 9.3
2017-Aug-03 21:30N 37°15' E 025°29'4 8.6
2017-Aug-03 21:00N 37°16' E 025°23'4 8.8
2017-Aug-03 20:30N 37°16' E 025°18'5 9.5
2017-Aug-03 20:00N 37°17' E 025°12'  
Track history (hours):
 
Tides and Currents Weather Stations Pressure Air Temp Water Temp Dewpoint Dewpoint Depression Visibility Wind Speed Wind Dir Waves Ship Positions

Eko 4

Last reported at 2017-Aug-13 19:43 UTC. Time now 2017-Aug-16 21:48 UTC.
Position N 37°35' E 023°51'.

Length 88 m; draft 5.5 m.

Type: Ship (hazmat cat A). MMSI: 240912000.

Date/timePositionNaut miles runAvg speedWind from/ knotsBaromVisibWave heightAir tempDewpointWater temp
2017-Aug-13 19:43N 37°35' E 023°51'2 9.8
2017-Aug-13 19:30N 37°36' E 023°49'5 9.5
2017-Aug-13 19:01N 37°39' E 023°44'5 9.1
2017-Aug-13 18:31N 37°43' E 023°41'5 9.5
2017-Aug-13 18:01N 37°47' E 023°38'5 9.3
2017-Aug-13 17:31N 37°50' E 023°33'5 9.8
2017-Aug-13 17:01N 37°51' E 023°27'5 9.9
2017-Aug-13 16:30N 37°52' E 023°21'10 9.7
2017-Aug-13 15:28N 37°54' E 023°09'3 0.1
2017-Aug-12 18:25N 37°55' E 023°05'1 2.1
2017-Aug-12 17:59N 37°54' E 023°06'0 0.1
2017-Aug-12 16:07N 37°55' E 023°06'1 4.2
2017-Aug-12 15:59N 37°54' E 023°07'4 8.0
2017-Aug-12 15:30N 37°53' E 023°11'5 9.9
2017-Aug-12 15:01N 37°53' E 023°18'5 9.9
2017-Aug-12 14:31N 37°52' E 023°24'510.0
2017-Aug-12 14:01N 37°50' E 023°30'5 9.3
2017-Aug-12 13:30N 37°54' E 023°34'2 3.3
2017-Aug-12 13:01N 37°55' E 023°34'0 0.0
2017-Aug-12 12:31N 37°55' E 023°34'0 0.0
2017-Aug-12 12:01N 37°55' E 023°34'0 0.0
2017-Aug-12 11:31N 37°55' E 023°34'0 0.1
2017-Aug-12 11:01N 37°55' E 023°34'1 1.6
2017-Aug-12 10:31N 37°55' E 023°34'5 9.2
2017-Aug-12 10:00N 37°51' E 023°38'510.0
2017-Aug-12 09:31N 37°47' E 023°41'5 9.9
2017-Aug-12 09:01N 37°42' E 023°44'6 9.9
2017-Aug-12 08:27N 37°38' E 023°49'  
2017-Aug-08 08:45N 37°35' E 023°50'3 9.8
2017-Aug-08 08:24N 37°37' E 023°47'4 9.8
2017-Aug-08 08:01N 37°39' E 023°43'510.4
2017-Aug-08 07:31N 37°44' E 023°40'510.4
2017-Aug-08 07:01N 37°49' E 023°37'510.1
2017-Aug-08 06:30N 37°54' E 023°36'4 7.8
2017-Aug-08 06:00N 37°57' E 023°34'4 7.2
2017-Aug-08 05:30N 38°01' E 023°33'1 2.3
2017-Aug-08 04:57N 38°02' E 023°32'0 0.0
2017-Aug-08 04:30N 38°02' E 023°32'0 0.0
2017-Aug-08 04:00N 38°02' E 023°32'0 0.0
2017-Aug-08 03:30N 38°02' E 023°32'0 0.0
2017-Aug-08 03:00N 38°02' E 023°32'0 0.1
2017-Aug-08 02:30N 38°02' E 023°32'1 2.3
2017-Aug-08 01:58N 38°02' E 023°31'0 0.0
2017-Aug-08 01:28N 38°02' E 023°31'0 0.0
2017-Aug-08 00:58N 38°02' E 023°31'0 0.0
2017-Aug-08 00:28N 38°02' E 023°31'0 0.0
2017-Aug-07 23:58N 38°02' E 023°31'0 0.0
2017-Aug-07 23:25N 38°02' E 023°31'0 0.0
2017-Aug-07 22:58N 38°02' E 023°31'0 0.0
2017-Aug-07 22:28N 38°02' E 023°31'0 0.0
2017-Aug-07 21:55N 38°02' E 023°31'0 0.0
2017-Aug-07 21:28N 38°02' E 023°31'0 0.0
2017-Aug-07 20:58N 38°02' E 023°31'0 0.0
2017-Aug-07 20:28N 38°02' E 023°31'0 0.0
2017-Aug-07 19:58N 38°02' E 023°31'0 0.0
2017-Aug-07 19:28N 38°02' E 023°31'0 0.0
2017-Aug-07 18:58N 38°02' E 023°31'0 0.0
2017-Aug-07 18:28N 38°02' E 023°31'0 0.0
2017-Aug-07 17:58N 38°02' E 023°31'0 0.0
2017-Aug-07 17:25N 38°02' E 023°31'0 0.0
2017-Aug-07 16:58N 38°02' E 023°31'0 0.0
2017-Aug-07 16:28N 38°02' E 023°31'0 0.0
2017-Aug-07 15:58N 38°02' E 023°31'0 0.0
2017-Aug-07 15:28N 38°02' E 023°31'0 0.0
2017-Aug-07 14:58N 38°02' E 023°31'0 0.0
2017-Aug-07 14:28N 38°02' E 023°31'0 0.0
2017-Aug-07 13:55N 38°02' E 023°31'0 0.0
2017-Aug-07 13:28N 38°02' E 023°31'0 0.0
2017-Aug-07 12:58N 38°02' E 023°31'0 0.0
2017-Aug-07 12:28N 38°02' E 023°31'0 0.0
2017-Aug-07 11:55N 38°02' E 023°31'0 0.0
2017-Aug-07 11:28N 38°02' E 023°31'0 0.0
2017-Aug-07 10:52N 38°02' E 023°31'0 0.0
2017-Aug-07 10:28N 38°02' E 023°31'0 0.0
2017-Aug-07 09:58N 38°02' E 023°31'0 0.0
2017-Aug-07 09:28N 38°02' E 023°31'0 0.0
2017-Aug-07 08:58N 38°02' E 023°31'0 0.9
2017-Aug-07 08:31N 38°02' E 023°31'1 2.0
2017-Aug-07 07:58N 38°02' E 023°32'0 0.0
2017-Aug-07 07:28N 38°02' E 023°32'0 0.1
2017-Aug-07 06:58N 38°02' E 023°32'0 0.0
2017-Aug-07 06:28N 38°02' E 023°32'0 0.0
2017-Aug-07 05:58N 38°02' E 023°32'0 0.0
2017-Aug-07 05:28N 38°02' E 023°32'0 0.0
2017-Aug-07 04:58N 38°02' E 023°32'0 0.1
2017-Aug-07 04:28N 38°02' E 023°32'0 0.0
2017-Aug-07 03:58N 38°02' E 023°32'0 0.0
2017-Aug-07 03:25N 38°02' E 023°32'0 0.1
2017-Aug-07 02:58N 38°02' E 023°32'0 0.0
2017-Aug-07 02:28N 38°02' E 023°32'0 0.0
2017-Aug-07 01:58N 38°02' E 023°32'0 0.1
2017-Aug-07 01:28N 38°02' E 023°32'0 0.0
2017-Aug-07 00:58N 38°02' E 023°32'0 0.1
2017-Aug-07 00:28N 38°02' E 023°32'0 0.0
2017-Aug-06 23:58N 38°02' E 023°32'0 0.1
2017-Aug-06 23:28N 38°02' E 023°32'0 0.0
2017-Aug-06 22:58N 38°02' E 023°32'0 0.0
2017-Aug-06 22:28N 38°02' E 023°32'0 0.0
2017-Aug-06 21:58N 38°02' E 023°32'0 0.0
2017-Aug-06 21:28N 38°02' E 023°32'0 0.0
2017-Aug-06 20:58N 38°02' E 023°32'0 0.0
2017-Aug-06 20:28N 38°02' E 023°32'0 0.0
2017-Aug-06 19:58N 38°02' E 023°32'0 0.0
2017-Aug-06 19:28N 38°02' E 023°32'0 0.0
2017-Aug-06 18:58N 38°02' E 023°32'0 0.1
2017-Aug-06 18:28N 38°02' E 023°32'0 0.0
2017-Aug-06 17:58N 38°02' E 023°32'0 0.0
2017-Aug-06 17:28N 38°02' E 023°32'0 0.0
2017-Aug-06 16:58N 38°02' E 023°32'0 0.1
2017-Aug-06 16:28N 38°02' E 023°32'3 5.7
2017-Aug-06 16:00N 37°59' E 023°33'4 8.3
2017-Aug-06 15:30N 37°56' E 023°36'2 5.0
2017-Aug-06 15:00N 37°54' E 023°38'510.4
2017-Aug-06 14:30N 37°49' E 023°40'510.4
2017-Aug-06 14:00N 37°44' E 023°43'510.2
2017-Aug-06 13:29N 37°40' E 023°46'  
2017-Aug-03 23:16N 37°12' E 025°49'3 9.6
2017-Aug-03 23:00N 37°12' E 025°46'5 9.5
2017-Aug-03 22:30N 37°13' E 025°40'5 9.5
2017-Aug-03 21:59N 37°14' E 025°34'4 9.3
2017-Aug-03 21:30N 37°15' E 025°29'4 8.6
2017-Aug-03 21:00N 37°16' E 025°23'4 8.8
2017-Aug-03 20:30N 37°16' E 025°18'5 9.5
2017-Aug-03 20:00N 37°17' E 025°12'  

Dump ship's entire track history